createdAt,value
2023-04-11T00:01:34.729Z,7.60
2023-04-11T00:04:01.982Z,7.50
2023-04-11T00:06:28.931Z,7.50
2023-04-11T00:08:57.194Z,7.50
2023-04-11T00:11:24.397Z,7.40
2023-04-11T00:13:51.119Z,7.40
2023-04-11T00:16:19.778Z,7.40
2023-04-11T00:18:47.192Z,7.30
2023-04-11T00:21:14.214Z,7.40
2023-04-11T00:23:40.949Z,7.40
2023-04-11T00:26:08.291Z,7.40
2023-04-11T00:28:36.169Z,7.40
2023-04-11T00:31:02.867Z,7.40
2023-04-11T00:33:29.534Z,7.40
2023-04-11T00:35:56.533Z,7.50
2023-04-11T00:38:23.253Z,7.50
2023-04-11T00:40:49.989Z,7.50
2023-04-11T00:43:16.949Z,7.50
2023-04-11T00:45:43.939Z,7.50
2023-04-11T00:48:10.828Z,7.50
2023-04-11T00:50:41.233Z,7.50
2023-04-11T00:53:12.511Z,7.50
2023-04-11T00:55:40.111Z,7.30
2023-04-11T00:58:08.556Z,7.10
2023-04-11T01:00:36.071Z,7.00
2023-04-11T01:03:03.149Z,6.90
2023-04-11T01:05:31.732Z,6.70
2023-04-11T01:07:59.696Z,6.60
2023-04-11T01:10:30.702Z,6.60
2023-04-11T01:13:00.730Z,6.50
2023-04-11T01:15:27.940Z,6.50
2023-04-11T01:17:55.672Z,6.40
2023-04-11T01:20:24.369Z,6.40
2023-04-11T01:22:52.291Z,6.40
2023-04-11T01:25:22.213Z,6.40
2023-04-11T01:27:49.208Z,6.30
2023-04-11T01:30:16.669Z,6.10
2023-04-11T01:32:43.425Z,6.00
2023-04-11T01:35:12.543Z,5.90
2023-04-11T01:37:39.574Z,5.80
2023-04-11T01:40:07.507Z,5.80
2023-04-11T01:42:34.968Z,5.70
2023-04-11T01:45:02.724Z,5.70
2023-04-11T01:47:29.582Z,5.70
2023-04-11T01:49:56.612Z,5.70
2023-04-11T01:52:23.324Z,5.70
2023-04-11T01:54:50.143Z,5.70
2023-04-11T01:57:17.231Z,5.70
2023-04-11T01:59:43.899Z,5.70
2023-04-11T02:02:11.219Z,5.60
2023-04-11T02:04:37.982Z,5.60
2023-04-11T02:07:04.690Z,5.60
2023-04-11T02:09:31.667Z,5.50
2023-04-11T02:11:59.552Z,5.50
2023-04-11T02:14:26.620Z,5.50
2023-04-11T02:16:55.297Z,5.50
2023-04-11T02:19:23.653Z,5.50
2023-04-11T02:21:50.539Z,5.50
2023-04-11T02:24:17.353Z,5.50
2023-04-11T02:26:44.090Z,5.50
2023-04-11T02:29:10.946Z,5.50
2023-04-11T02:31:38.774Z,5.60
2023-04-11T02:34:05.603Z,5.60
2023-04-11T02:36:32.723Z,5.60
2023-04-11T02:38:59.712Z,5.60
2023-04-11T02:41:26.426Z,5.60
2023-04-11T02:43:53.827Z,5.50
2023-04-11T02:46:21.168Z,5.50
2023-04-11T02:48:47.884Z,5.50
2023-04-11T02:51:14.654Z,5.50
2023-04-11T02:53:41.692Z,5.50
2023-04-11T02:56:11.931Z,5.40
2023-04-11T02:58:43.348Z,5.40
2023-04-11T03:01:11.979Z,5.40
2023-04-11T03:03:39.326Z,5.40
2023-04-11T03:06:09.358Z,5.40
2023-04-11T03:08:37.315Z,5.40
2023-04-11T03:11:05.004Z,5.30
2023-04-11T03:13:33.627Z,5.30
2023-04-11T03:16:00.465Z,5.30
2023-04-11T03:18:27.567Z,5.40
2023-04-11T03:20:54.311Z,5.40
2023-04-11T03:23:21.017Z,5.30
2023-04-11T03:25:48.932Z,5.30
2023-04-11T03:28:15.804Z,5.30
2023-04-11T03:31:14.190Z,5.30
2023-04-11T03:33:41.237Z,5.30
2023-04-11T03:36:08.281Z,5.30
2023-04-11T03:38:35.034Z,5.30
2023-04-11T03:41:02.104Z,5.30
2023-04-11T03:43:29.141Z,5.20
2023-04-11T03:45:56.321Z,5.20
2023-04-11T03:48:26.391Z,5.20
2023-04-11T03:50:53.323Z,5.30
2023-04-11T03:53:20.232Z,5.30
2023-04-11T03:55:49.234Z,5.30
2023-04-11T03:58:16.514Z,5.30
2023-04-11T04:00:43.230Z,5.30
2023-04-11T04:03:10.043Z,5.30
2023-04-11T04:05:37.164Z,5.30
2023-04-11T04:08:03.921Z,5.30
2023-04-11T04:10:30.647Z,5.30
2023-04-11T04:12:57.632Z,5.30
2023-04-11T04:15:24.649Z,5.30
2023-04-11T04:17:51.968Z,5.40
2023-04-11T04:20:18.689Z,5.40
2023-04-11T04:22:47.617Z,5.40
2023-04-11T04:25:16.962Z,5.50
2023-04-11T04:27:44.977Z,5.50
2023-04-11T04:30:15.341Z,5.50
2023-04-11T04:32:46.216Z,5.50
2023-04-11T04:35:17.027Z,5.60
2023-04-11T04:37:46.005Z,5.60
2023-04-11T04:40:14.034Z,5.60
2023-04-11T04:42:42.315Z,5.60
2023-04-11T04:45:10.406Z,5.50
2023-04-11T04:47:38.658Z,5.50
2023-04-11T04:50:06.393Z,5.60
2023-04-11T04:52:33.372Z,5.60
2023-04-11T04:55:01.094Z,5.60
2023-04-11T04:57:29.178Z,5.60
2023-04-11T04:59:57.191Z,5.60
2023-04-11T05:02:25.496Z,5.70
2023-04-11T05:04:54.360Z,5.70
2023-04-11T05:07:21.318Z,5.70
2023-04-11T05:09:48.134Z,5.70
2023-04-11T05:12:16.298Z,5.80
2023-04-11T05:14:43.145Z,5.80
2023-04-11T05:17:09.857Z,5.90
2023-04-11T05:19:36.875Z,5.90
2023-04-11T05:22:03.541Z,5.90
2023-04-11T05:24:30.501Z,6.00
2023-04-11T05:26:57.173Z,6.00
2023-04-11T05:29:23.984Z,6.00
2023-04-11T05:31:50.834Z,6.10
2023-04-11T05:34:17.807Z,6.10
2023-04-11T05:36:46.405Z,6.10
2023-04-11T05:39:13.728Z,6.10
2023-04-11T05:41:40.483Z,6.20
2023-04-11T05:44:07.533Z,6.20
2023-04-11T05:46:37.034Z,6.20
2023-04-11T05:49:03.986Z,6.20
2023-04-11T05:51:31.133Z,6.20
2023-04-11T05:53:58.556Z,6.20
2023-04-11T05:56:25.718Z,6.20
2023-04-11T05:58:52.460Z,6.10
2023-04-11T06:01:19.229Z,6.00
2023-04-11T06:03:47.075Z,6.00
2023-04-11T06:06:14.540Z,6.00
2023-04-11T06:08:41.615Z,6.00
2023-04-11T06:11:08.628Z,6.00
2023-04-11T06:13:35.442Z,6.00
2023-04-11T06:16:02.641Z,6.20
2023-04-11T06:18:29.433Z,6.20
2023-04-11T06:20:56.216Z,6.30
2023-04-11T06:23:24.237Z,6.10
2023-04-11T06:26:14.920Z,6.00
2023-04-11T06:28:41.708Z,6.00
2023-04-11T06:31:09.590Z,6.00
2023-04-11T06:33:36.354Z,6.00
2023-04-11T06:36:05.588Z,6.00
2023-04-11T06:38:34.870Z,6.10
2023-04-11T06:41:01.635Z,6.20
2023-04-11T06:43:28.388Z,6.30
2023-04-11T06:45:55.321Z,6.50
2023-04-11T06:48:22.067Z,6.60
2023-04-11T06:50:48.913Z,6.60
2023-04-11T06:53:15.684Z,6.70
2023-04-11T06:55:42.511Z,6.80
2023-04-11T06:58:09.837Z,7.00
2023-04-11T07:00:44.026Z,7.00
2023-04-11T07:03:10.909Z,7.00
2023-04-11T07:05:39.580Z,7.00
2023-04-11T07:08:06.468Z,7.00
2023-04-11T07:10:33.205Z,6.90
2023-04-11T07:12:59.840Z,6.80
2023-04-11T07:15:28.043Z,6.80
2023-04-11T07:17:54.742Z,6.80
2023-04-11T07:20:21.582Z,6.80
2023-04-11T07:22:48.546Z,6.70
2023-04-11T07:25:15.426Z,6.70
2023-04-11T07:27:43.702Z,6.80
2023-04-11T07:30:11.194Z,6.90
2023-04-11T07:32:37.872Z,7.00
2023-04-11T07:35:04.837Z,7.10
2023-04-11T07:37:32.546Z,7.00
2023-04-11T07:39:59.503Z,7.00
2023-04-11T07:42:26.556Z,7.00
2023-04-11T07:44:53.274Z,6.90
2023-04-11T07:47:19.954Z,6.70
2023-04-11T07:49:46.952Z,6.60
2023-04-11T07:52:14.411Z,6.50
2023-04-11T07:54:41.484Z,6.60
2023-04-11T07:57:08.448Z,6.80
2023-04-11T07:59:35.550Z,7.20
2023-04-11T08:02:04.405Z,7.90
2023-04-11T08:04:33.630Z,8.70
2023-04-11T08:07:00.751Z,9.40
2023-04-11T08:09:30.178Z,9.50
2023-04-11T08:11:57.351Z,9.70
2023-04-11T08:14:24.100Z,10.70
2023-04-11T08:16:53.056Z,12.40
2023-04-11T08:19:20.294Z,13.70
2023-04-11T08:21:47.156Z,14.20
2023-04-11T08:24:13.808Z,14.10
2023-04-11T08:26:40.784Z,13.10
2023-04-11T08:29:11.441Z,12.00
2023-04-11T08:31:44.821Z,11.10
2023-04-11T08:34:12.241Z,10.30
2023-04-11T08:36:39.334Z,9.80
2023-04-11T08:39:06.682Z,9.60
2023-04-11T08:41:34.573Z,9.20
2023-04-11T08:44:01.468Z,9.50
2023-04-11T08:46:30.186Z,10.30
2023-04-11T08:48:56.993Z,10.40
2023-04-11T08:51:26.872Z,10.40
2023-04-11T08:53:57.817Z,10.20
2023-04-11T08:56:25.048Z,10.30
2023-04-11T08:58:51.763Z,10.40
2023-04-11T09:01:26.557Z,11.10
2023-04-11T09:03:53.622Z,12.60
2023-04-11T09:06:21.075Z,13.80
2023-04-11T09:08:47.839Z,13.90
2023-04-11T09:11:14.812Z,13.70
2023-04-11T09:13:41.534Z,13.10
2023-04-11T09:16:10.252Z,13.10
2023-04-11T09:18:39.471Z,13.60
2023-04-11T09:21:11.829Z,13.20
2023-04-11T09:23:39.362Z,12.90
2023-04-11T09:26:11.257Z,13.50
2023-04-11T09:28:54.014Z,13.20
2023-04-11T09:31:41.557Z,13.00
2023-04-11T09:34:13.360Z,12.90
2023-04-11T09:36:43.674Z,14.40
2023-04-11T09:39:18.265Z,15.50
2023-04-11T09:41:45.827Z,16.30
2023-04-11T09:44:12.864Z,17.50
2023-04-11T09:46:59.711Z,18.60
2023-04-11T09:49:27.309Z,19.70
2023-04-11T09:51:54.418Z,20.60
2023-04-11T09:54:22.455Z,21.40
2023-04-11T09:57:06.040Z,22.20
2023-04-11T09:59:36.080Z,22.40
2023-04-11T10:02:04.057Z,21.10
2023-04-11T10:04:31.016Z,20.70
2023-04-11T10:07:09.044Z,20.90
2023-04-11T10:09:39.808Z,21.20
2023-04-11T10:12:06.968Z,20.80
2023-04-11T10:14:36.724Z,21.00
2023-04-11T10:17:23.431Z,21.10
2023-04-11T10:19:56.980Z,22.20
2023-04-11T10:22:46.460Z,23.00
2023-04-11T10:25:21.264Z,23.00
2023-04-11T10:27:49.756Z,23.20
2023-04-11T10:30:16.825Z,22.40
2023-04-11T10:33:23.481Z,22.00
2023-04-11T10:36:02.243Z,22.70
2023-04-11T10:38:41.686Z,21.90
2023-04-11T10:41:31.606Z,21.40
2023-04-11T10:44:24.897Z,19.60
2023-04-11T10:46:55.975Z,18.60
2023-04-11T10:49:39.571Z,19.50
2023-04-11T10:52:37.639Z,21.20
2023-04-11T10:55:17.774Z,22.20
2023-04-11T10:58:14.409Z,23.50
2023-04-11T11:00:50.353Z,23.80
2023-04-11T11:03:22.327Z,22.70
2023-04-11T11:06:10.001Z,23.00
2023-04-11T11:08:41.283Z,24.30
2023-04-11T11:11:10.092Z,23.50
2023-04-11T11:13:54.002Z,21.40
2023-04-11T11:16:25.935Z,18.60
2023-04-11T11:18:56.908Z,16.00
2023-04-11T11:21:31.901Z,13.80
2023-04-11T11:24:02.752Z,12.60
2023-04-11T11:26:40.763Z,11.90
2023-04-11T11:29:08.381Z,11.70
2023-04-11T11:31:41.697Z,12.80
2023-04-11T11:34:23.118Z,15.90
2023-04-11T11:36:51.212Z,18.70
2023-04-11T11:39:19.481Z,21.20
2023-04-11T11:41:47.402Z,22.50
2023-04-11T11:44:29.087Z,23.90
2023-04-11T11:47:18.022Z,24.20
2023-04-11T11:49:45.488Z,24.70
2023-04-11T11:52:13.119Z,25.50
2023-04-11T11:54:47.468Z,25.80
2023-04-11T12:01:01.763Z,25.20
2023-04-11T12:03:30.084Z,25.30
2023-04-11T12:05:58.451Z,23.70
2023-04-11T12:08:25.468Z,21.60
2023-04-11T12:10:52.425Z,19.90
2023-04-11T12:13:25.720Z,18.30
2023-04-11T12:15:53.864Z,16.70
2023-04-11T12:18:21.948Z,14.90
2023-04-11T12:20:49.755Z,12.60
2023-04-11T12:23:16.858Z,10.50
2023-04-11T12:25:43.671Z,9.10
2023-04-11T12:28:11.129Z,8.20
2023-04-11T12:30:38.697Z,7.80
2023-04-11T12:33:06.186Z,7.50
2023-04-11T12:35:33.503Z,7.40
2023-04-11T12:38:00.470Z,7.60
2023-04-11T12:40:28.299Z,8.00
2023-04-11T12:42:56.904Z,8.30
2023-04-11T12:45:24.663Z,8.50
2023-04-11T12:47:52.088Z,8.70
2023-04-11T12:50:19.268Z,8.80
2023-04-11T12:52:46.034Z,9.00
2023-04-11T12:55:13.422Z,9.70
2023-04-11T12:57:41.009Z,11.50
2023-04-11T13:00:09.078Z,13.90
2023-04-11T13:02:42.952Z,15.70
2023-04-11T13:05:27.168Z,17.20
2023-04-11T13:07:54.086Z,18.20
2023-04-11T13:10:21.226Z,17.80
2023-04-11T13:12:48.523Z,17.90
2023-04-11T13:15:17.081Z,19.00
2023-04-11T13:17:44.363Z,19.70
2023-04-11T13:20:11.619Z,20.40
2023-04-11T13:22:39.679Z,20.70
2023-04-11T13:25:07.034Z,20.70
2023-04-11T13:27:34.358Z,20.60
2023-04-11T13:30:01.457Z,20.40
2023-04-11T13:32:28.362Z,20.40
2023-04-11T13:34:55.753Z,20.90
2023-04-11T13:37:22.454Z,21.10
2023-04-11T13:39:49.141Z,20.20
2023-04-11T13:42:16.037Z,18.50
2023-04-11T13:44:42.928Z,16.70
2023-04-11T13:47:09.600Z,15.10
2023-04-11T13:49:36.547Z,14.10
2023-04-11T13:52:03.294Z,13.50
2023-04-11T13:54:30.480Z,12.90
2023-04-11T13:57:09.416Z,12.10
2023-04-11T13:59:36.690Z,10.80
2023-04-11T14:02:03.604Z,10.10
2023-04-11T14:04:30.993Z,9.60
2023-04-11T14:06:58.005Z,9.40
2023-04-11T14:09:24.759Z,9.10
2023-04-11T14:11:59.911Z,8.80
2023-04-11T14:14:29.906Z,8.40
2023-04-11T14:16:56.704Z,8.10
2023-04-11T14:19:24.863Z,7.90
2023-04-11T14:21:52.027Z,7.60
2023-04-11T14:24:21.897Z,7.60
2023-04-11T14:26:49.997Z,7.80
2023-04-11T14:29:16.753Z,8.10
2023-04-11T14:31:44.016Z,8.40
2023-04-11T14:34:11.029Z,8.70
2023-04-11T14:36:37.770Z,8.80
2023-04-11T14:39:05.115Z,8.80
2023-04-11T14:41:31.807Z,8.90
2023-04-11T14:43:58.814Z,8.90
2023-04-11T14:46:25.779Z,8.90
2023-04-11T14:48:52.568Z,8.90
2023-04-11T14:51:21.580Z,8.90
2023-04-11T14:53:55.139Z,9.00
2023-04-11T14:56:23.279Z,9.00
2023-04-11T14:58:50.877Z,9.10
2023-04-11T15:01:18.224Z,9.20
2023-04-11T15:03:46.231Z,9.20
2023-04-11T15:06:13.387Z,9.30
2023-04-11T15:08:40.833Z,9.30
2023-04-11T15:11:08.141Z,9.40
2023-04-11T15:13:35.042Z,9.50
2023-04-11T15:16:02.856Z,9.60
2023-04-11T15:18:31.245Z,9.60
2023-04-11T15:21:03.490Z,9.70
2023-04-11T15:23:30.502Z,9.70
2023-04-11T15:26:02.724Z,9.70
2023-04-11T15:28:37.390Z,9.60
2023-04-11T15:31:06.312Z,9.50
2023-04-11T15:33:33.894Z,9.40
2023-04-11T15:36:01.084Z,9.40
2023-04-11T15:38:29.244Z,9.30
2023-04-11T15:41:00.048Z,9.20
2023-04-11T15:43:27.303Z,9.20
2023-04-11T15:45:54.800Z,9.10
2023-04-11T15:48:21.541Z,8.90
2023-04-11T15:50:48.740Z,8.80
2023-04-11T15:53:18.627Z,8.70
2023-04-11T15:55:47.089Z,8.70
2023-04-11T15:58:13.879Z,8.70
2023-04-11T16:00:42.625Z,8.70
2023-04-11T16:03:10.633Z,8.80
2023-04-11T16:06:01.272Z,8.80
2023-04-11T16:08:35.721Z,8.80
2023-04-11T16:11:02.867Z,8.80
2023-04-11T16:13:29.561Z,8.70
2023-04-11T16:15:56.957Z,8.70
2023-04-11T16:18:24.073Z,8.70
2023-04-11T16:20:50.868Z,8.60
2023-04-11T16:23:17.738Z,8.50
2023-04-11T16:25:45.564Z,8.50
2023-04-11T16:28:14.179Z,8.40
2023-04-11T16:30:41.319Z,8.40
2023-04-11T16:33:08.115Z,8.40
2023-04-11T16:35:35.584Z,8.40
2023-04-11T16:38:02.245Z,8.40
2023-04-11T16:40:31.647Z,8.50
2023-04-11T16:42:58.734Z,8.50
2023-04-11T16:45:25.483Z,8.50
2023-04-11T16:47:52.329Z,8.50
2023-04-11T16:50:19.321Z,8.50
2023-04-11T16:52:46.086Z,8.50
2023-04-11T16:55:13.320Z,8.50
2023-04-11T16:57:40.845Z,8.50
2023-04-11T17:00:11.187Z,8.40
2023-04-11T17:02:37.938Z,8.40
2023-04-11T17:05:05.650Z,8.30
2023-04-11T17:07:33.720Z,8.30
2023-04-11T17:10:01.147Z,8.20
2023-04-11T17:12:28.657Z,8.20
2023-04-11T17:14:56.011Z,8.10
2023-04-11T17:17:23.054Z,8.10
2023-04-11T17:19:49.800Z,8.10
2023-04-11T17:22:16.461Z,8.00
2023-04-11T17:24:43.597Z,8.10
2023-04-11T17:27:11.390Z,8.10
2023-04-11T17:29:48.863Z,8.20
2023-04-11T17:32:16.214Z,8.20
2023-04-11T17:34:42.918Z,8.30
2023-04-11T17:37:10.297Z,8.30
2023-04-11T17:39:37.240Z,8.40
2023-04-11T17:42:04.194Z,8.40
2023-04-11T17:44:31.269Z,8.30
2023-04-11T17:46:58.378Z,8.00
2023-04-11T17:49:27.227Z,7.80
2023-04-11T17:51:59.231Z,7.70
2023-04-11T17:54:34.735Z,7.50
2023-04-11T17:57:01.456Z,7.30
2023-04-11T18:02:16.920Z,7.00
2023-04-11T18:04:43.865Z,6.90
2023-04-11T18:07:11.232Z,6.70
2023-04-11T18:09:37.955Z,6.60
2023-04-11T18:12:04.806Z,6.40
2023-04-11T18:14:33.037Z,6.30
2023-04-11T18:17:00.507Z,6.10
2023-04-11T18:19:27.253Z,6.10
2023-04-11T18:21:54.023Z,6.00
2023-04-11T18:24:20.805Z,5.90
2023-04-11T18:26:48.498Z,6.00
2023-04-11T18:29:15.470Z,5.80
2023-04-11T18:31:42.806Z,5.70
2023-04-11T18:34:09.803Z,5.50
2023-04-11T18:36:36.685Z,5.20
2023-04-11T18:39:03.877Z,5.10
2023-04-11T18:41:30.653Z,4.90
2023-04-11T18:43:58.206Z,4.80
2023-04-11T18:46:25.355Z,4.80
2023-04-11T18:48:52.099Z,4.60
2023-04-11T18:51:20.020Z,4.50
2023-04-11T18:53:48.292Z,4.30
2023-04-11T18:56:15.031Z,4.30
2023-04-11T18:58:45.505Z,4.10
2023-04-11T19:01:16.200Z,4.10
2023-04-11T19:03:44.958Z,4.00
2023-04-11T19:06:12.003Z,4.00
2023-04-11T19:08:38.759Z,3.90
2023-04-11T19:11:06.244Z,3.90
2023-04-11T19:14:02.310Z,3.80
2023-04-11T19:16:30.795Z,3.70
2023-04-11T19:18:59.088Z,3.60
2023-04-11T19:21:26.560Z,3.50
2023-04-11T19:26:40.913Z,3.30
2023-04-11T19:29:07.774Z,3.30
2023-04-11T19:31:34.501Z,3.20
2023-04-11T19:34:03.645Z,3.10
2023-04-11T19:36:33.987Z,3.10
2023-04-11T19:39:01.534Z,3.00
2023-04-11T19:41:29.057Z,3.00
2023-04-11T19:43:56.039Z,2.90
2023-04-11T19:46:23.001Z,2.90
2023-04-11T19:48:50.187Z,2.80
2023-04-11T19:51:17.732Z,2.80
2023-04-11T19:53:44.909Z,2.70
2023-04-11T19:56:11.695Z,2.70
2023-04-11T19:58:40.303Z,2.80
2023-04-11T20:01:07.369Z,2.70
2023-04-11T20:03:35.060Z,2.60
2023-04-11T20:06:05.662Z,2.60
2023-04-11T20:08:32.627Z,2.50
2023-04-11T20:10:59.730Z,2.50
2023-04-11T20:13:26.320Z,2.40
2023-04-11T20:15:53.528Z,2.40
2023-04-11T20:18:20.603Z,2.30
2023-04-11T20:20:47.214Z,2.30
2023-04-11T20:23:15.965Z,2.20
2023-04-11T20:25:43.189Z,2.20
2023-04-11T20:28:11.068Z,2.10
2023-04-11T20:30:38.839Z,2.10
2023-04-11T20:33:06.160Z,2.00
2023-04-11T20:35:33.470Z,2.00
2023-04-11T20:38:00.152Z,2.00
2023-04-11T20:40:26.825Z,1.90
2023-04-11T20:42:53.905Z,1.90
2023-04-11T20:45:21.693Z,1.90
2023-04-11T20:47:50.131Z,1.90
2023-04-11T20:50:18.314Z,1.80
2023-04-11T20:52:47.176Z,1.70
2023-04-11T20:55:14.450Z,1.70
2023-04-11T20:57:41.757Z,1.70
2023-04-11T21:00:20.270Z,1.70
2023-04-11T21:02:50.250Z,1.60
2023-04-11T21:05:18.517Z,1.60
2023-04-11T21:07:45.637Z,1.60
2023-04-11T21:10:12.432Z,1.50
2023-04-11T21:12:39.589Z,1.50
2023-04-11T21:15:07.231Z,1.40
2023-04-11T21:17:36.884Z,1.40
2023-04-11T21:20:18.223Z,1.30
2023-04-11T21:22:46.621Z,1.30
2023-04-11T21:25:16.703Z,1.30
2023-04-11T21:27:44.071Z,1.20
2023-04-11T21:30:11.816Z,1.20
2023-04-11T21:32:40.000Z,1.20
2023-04-11T21:35:09.398Z,1.10
2023-04-11T21:37:36.259Z,1.10
2023-04-11T21:40:04.300Z,1.10
2023-04-11T21:42:31.382Z,1.10
2023-04-11T21:44:58.499Z,1.00
2023-04-11T21:47:25.444Z,0.90
2023-04-11T21:49:53.016Z,0.90
2023-04-11T21:52:19.679Z,0.90
2023-04-11T21:54:46.446Z,0.90
2023-04-11T21:57:13.710Z,0.90
2023-04-11T21:59:40.321Z,0.80
2023-04-11T22:02:08.252Z,0.80
2023-04-11T22:04:41.287Z,0.80
2023-04-11T22:07:15.907Z,0.80
2023-04-11T22:09:46.850Z,0.70
2023-04-11T22:12:17.840Z,0.70
2023-04-11T22:14:44.529Z,0.70
2023-04-11T22:17:11.169Z,0.70
2023-04-11T22:19:38.199Z,0.60
2023-04-11T22:22:08.545Z,0.60
2023-04-11T22:24:38.095Z,0.60
2023-04-11T22:27:06.175Z,0.60
2023-04-11T22:29:34.284Z,0.60
2023-04-11T22:32:04.195Z,0.60
2023-04-11T22:34:31.417Z,0.50
2023-04-11T22:36:58.439Z,0.50
2023-04-11T22:39:25.507Z,0.50
2023-04-11T22:41:52.949Z,0.50
2023-04-11T22:44:20.394Z,0.50
2023-04-11T22:47:06.598Z,0.50
2023-04-11T22:49:40.969Z,0.50
2023-04-11T22:52:09.262Z,0.50
2023-04-11T22:54:35.973Z,0.40
2023-04-11T22:57:02.668Z,0.40
2023-04-11T22:59:29.729Z,0.40
2023-04-11T23:01:56.638Z,0.30
2023-04-11T23:04:23.675Z,0.40
2023-04-11T23:06:51.631Z,0.30
2023-04-11T23:09:19.219Z,0.30
2023-04-11T23:11:49.109Z,0.30
2023-04-11T23:14:21.411Z,0.30
2023-04-11T23:16:48.700Z,0.20
2023-04-11T23:19:45.789Z,0.20
2023-04-11T23:22:14.691Z,0.20
2023-04-11T23:24:41.574Z,0.20
2023-04-11T23:27:08.732Z,0.10
2023-04-11T23:29:35.503Z,0.10
2023-04-11T23:32:02.647Z,0.10
2023-04-11T23:34:30.091Z,0.10
2023-04-11T23:36:57.906Z,0.00
2023-04-11T23:39:24.579Z,0.00
2023-04-11T23:41:52.732Z,0.00
2023-04-11T23:44:19.355Z,0.00
2023-04-11T23:46:45.989Z,0.00
2023-04-11T23:49:12.880Z,0.00
2023-04-11T23:51:39.880Z,0.00
2023-04-11T23:54:07.418Z,0.00
2023-04-11T23:56:34.111Z,0.00
2023-04-11T23:59:01.240Z,0.00
